sensor_id;sensor_type;location;lat;lon;timestamp;P1;durP1;ratioP1;P2;durP2;ratioP2
11677;SDS011;5895;41.950;24.372;2022-12-19T00:01:22;7.60;;;6.80;;
11677;SDS011;5895;41.950;24.372;2022-12-19T00:03:53;7.82;;;6.72;;
11677;SDS011;5895;41.950;24.372;2022-12-19T00:06:23;8.43;;;7.28;;
11677;SDS011;5895;41.950;24.372;2022-12-19T00:08:51;8.80;;;7.47;;
11677;SDS011;5895;41.950;24.372;2022-12-19T00:11:21;8.00;;;7.20;;
11677;SDS011;5895;41.950;24.372;2022-12-19T00:13:50;8.93;;;7.53;;
11677;SDS011;5895;41.950;24.372;2022-12-19T00:16:18;8.00;;;6.80;;
11677;SDS011;5895;41.950;24.372;2022-12-19T00:18:47;10.57;;;7.68;;
11677;SDS011;5895;41.950;24.372;2022-12-19T00:21:16;7.63;;;6.82;;
11677;SDS011;5895;41.950;24.372;2022-12-19T00:23:47;6.88;;;6.18;;
11677;SDS011;5895;41.950;24.372;2022-12-19T00:26:15;6.82;;;5.95;;
11677;SDS011;5895;41.950;24.372;2022-12-19T00:28:45;6.75;;;6.07;;
11677;SDS011;5895;41.950;24.372;2022-12-19T00:31:14;6.28;;;5.47;;
11677;SDS011;5895;41.950;24.372;2022-12-19T00:33:42;6.78;;;6.07;;
11677;SDS011;5895;41.950;24.372;2022-12-19T00:36:11;5.10;;;4.50;;
11677;SDS011;5895;41.950;24.372;2022-12-19T00:38:40;3.95;;;3.65;;
11677;SDS011;5895;41.950;24.372;2022-12-19T00:41:11;3.67;;;3.38;;
11677;SDS011;5895;41.950;24.372;2022-12-19T00:43:40;3.65;;;3.35;;
11677;SDS011;5895;41.950;24.372;2022-12-19T00:46:10;3.90;;;3.60;;
11677;SDS011;5895;41.950;24.372;2022-12-19T00:48:39;4.15;;;3.85;;
11677;SDS011;5895;41.950;24.372;2022-12-19T00:51:08;3.38;;;3.08;;
11677;SDS011;5895;41.950;24.372;2022-12-19T00:53:37;5.10;;;3.72;;
11677;SDS011;5895;41.950;24.372;2022-12-19T00:56:05;15.30;;;4.38;;
11677;SDS011;5895;41.950;24.372;2022-12-19T00:58:37;4.75;;;4.35;;
11677;SDS011;5895;41.950;24.372;2022-12-19T01:01:05;4.70;;;4.30;;
11677;SDS011;5895;41.950;24.372;2022-12-19T01:03:34;6.97;;;4.55;;
11677;SDS011;5895;41.950;24.372;2022-12-19T01:06:02;9.23;;;4.00;;
11677;SDS011;5895;41.950;24.372;2022-12-19T01:08:30;4.97;;;4.20;;
11677;SDS011;5895;41.950;24.372;2022-12-19T01:10:58;9.23;;;4.30;;
11677;SDS011;5895;41.950;24.372;2022-12-19T01:13:27;5.93;;;4.20;;
11677;SDS011;5895;41.950;24.372;2022-12-19T01:15:55;4.18;;;3.80;;
11677;SDS011;5895;41.950;24.372;2022-12-19T01:18:27;48.78;;;5.43;;
11677;SDS011;5895;41.950;24.372;2022-12-19T01:20:57;23.95;;;4.68;;
11677;SDS011;5895;41.950;24.372;2022-12-19T01:23:26;99.93;;;6.97;;
11677;SDS011;5895;41.950;24.372;2022-12-19T01:25:54;87.95;;;5.68;;
11677;SDS011;5895;41.950;24.372;2022-12-19T01:28:22;29.98;;;4.68;;
11677;SDS011;5895;41.950;24.372;2022-12-19T01:30:51;298.65;;;9.93;;
11677;SDS011;5895;41.950;24.372;2022-12-19T01:33:20;13.07;;;4.22;;
11677;SDS011;5895;41.950;24.372;2022-12-19T01:35:47;33.10;;;5.10;;
11677;SDS011;5895;41.950;24.372;2022-12-19T01:38:16;16.30;;;3.83;;
11677;SDS011;5895;41.950;24.372;2022-12-19T01:40:50;34.05;;;4.60;;
11677;SDS011;5895;41.950;24.372;2022-12-19T01:43:19;9.98;;;3.67;;
11677;SDS011;5895;41.950;24.372;2022-12-19T01:45:48;33.20;;;4.97;;
11677;SDS011;5895;41.950;24.372;2022-12-19T01:48:23;4.68;;;4.05;;
11677;SDS011;5895;41.950;24.372;2022-12-19T01:50:56;29.70;;;4.25;;
11677;SDS011;5895;41.950;24.372;2022-12-19T01:53:26;175.35;;;8.90;;
11677;SDS011;5895;41.950;24.372;2022-12-19T01:55:57;27.75;;;4.38;;
11677;SDS011;5895;41.950;24.372;2022-12-19T01:58:26;7.90;;;3.17;;
11677;SDS011;5895;41.950;24.372;2022-12-19T02:00:53;70.32;;;5.10;;
11677;SDS011;5895;41.950;24.372;2022-12-19T02:03:23;86.22;;;4.85;;
11677;SDS011;5895;41.950;24.372;2022-12-19T02:05:53;36.22;;;3.53;;
11677;SDS011;5895;41.950;24.372;2022-12-19T02:08:21;12.05;;;3.00;;
11677;SDS011;5895;41.950;24.372;2022-12-19T02:10:50;27.85;;;3.33;;
11677;SDS011;5895;41.950;24.372;2022-12-19T02:13:17;29.30;;;3.58;;
11677;SDS011;5895;41.950;24.372;2022-12-19T02:15:47;22.38;;;3.13;;
11677;SDS011;5895;41.950;24.372;2022-12-19T02:18:25;82.38;;;5.60;;
11677;SDS011;5895;41.950;24.372;2022-12-19T02:21:13;37.42;;;4.13;;
11677;SDS011;5895;41.950;24.372;2022-12-19T02:24:03;60.60;;;5.43;;
11677;SDS011;5895;41.950;24.372;2022-12-19T02:26:56;11.05;;;3.38;;
11677;SDS011;5895;41.950;24.372;2022-12-19T02:32:32;22.33;;;3.38;;
11677;SDS011;5895;41.950;24.372;2022-12-19T02:35:09;36.97;;;4.50;;
11677;SDS011;5895;41.950;24.372;2022-12-19T02:37:44;49.08;;;4.13;;
11677;SDS011;5895;41.950;24.372;2022-12-19T02:40:16;10.10;;;3.28;;
11677;SDS011;5895;41.950;24.372;2022-12-19T02:42:49;3.92;;;3.30;;
11677;SDS011;5895;41.950;24.372;2022-12-19T02:45:22;3.53;;;2.28;;
11677;SDS011;5895;41.950;24.372;2022-12-19T02:47:54;2.67;;;2.47;;
11677;SDS011;5895;41.950;24.372;2022-12-19T02:50:22;2.53;;;2.33;;
11677;SDS011;5895;41.950;24.372;2022-12-19T02:52:50;1.83;;;1.73;;
11677;SDS011;5895;41.950;24.372;2022-12-19T02:55:19;1.52;;;1.42;;
11677;SDS011;5895;41.950;24.372;2022-12-19T03:00:52;1.40;;;1.30;;
11677;SDS011;5895;41.950;24.372;2022-12-19T03:03:28;1.30;;;1.20;;
11677;SDS011;5895;41.950;24.372;2022-12-19T03:06:06;2.25;;;1.20;;
11677;SDS011;5895;41.950;24.372;2022-12-19T03:08:44;1.20;;;1.10;;
11677;SDS011;5895;41.950;24.372;2022-12-19T03:11:19;1.17;;;1.13;;
11677;SDS011;5895;41.950;24.372;2022-12-19T03:13:51;1.00;;;1.00;;
11677;SDS011;5895;41.950;24.372;2022-12-19T03:16:21;1.40;;;1.30;;
11677;SDS011;5895;41.950;24.372;2022-12-19T03:18:51;1.38;;;1.27;;
11677;SDS011;5895;41.950;24.372;2022-12-19T03:21:22;1.13;;;1.10;;
11677;SDS011;5895;41.950;24.372;2022-12-19T03:23:55;1.10;;;1.00;;
11677;SDS011;5895;41.950;24.372;2022-12-19T03:26:25;1.30;;;1.17;;
11677;SDS011;5895;41.950;24.372;2022-12-19T03:28:56;1.02;;;1.02;;
11677;SDS011;5895;41.950;24.372;2022-12-19T03:31:28;1.15;;;1.15;;
11677;SDS011;5895;41.950;24.372;2022-12-19T03:34:01;1.30;;;1.20;;
11677;SDS011;5895;41.950;24.372;2022-12-19T03:36:31;1.30;;;1.20;;
11677;SDS011;5895;41.950;24.372;2022-12-19T03:39:03;1.40;;;1.30;;
11677;SDS011;5895;41.950;24.372;2022-12-19T03:41:34;1.63;;;1.52;;
11677;SDS011;5895;41.950;24.372;2022-12-19T03:44:21;1.40;;;1.30;;
11677;SDS011;5895;41.950;24.372;2022-12-19T03:46:53;1.40;;;1.30;;
11677;SDS011;5895;41.950;24.372;2022-12-19T03:49:26;1.70;;;1.60;;
11677;SDS011;5895;41.950;24.372;2022-12-19T03:51:56;3.05;;;1.50;;
11677;SDS011;5895;41.950;24.372;2022-12-19T03:54:32;1.70;;;1.60;;
11677;SDS011;5895;41.950;24.372;2022-12-19T03:57:05;2.33;;;2.08;;
11677;SDS011;5895;41.950;24.372;2022-12-19T03:59:38;1.80;;;1.70;;
11677;SDS011;5895;41.950;24.372;2022-12-19T04:02:07;1.95;;;1.83;;
11677;SDS011;5895;41.950;24.372;2022-12-19T04:04:39;1.80;;;1.70;;
11677;SDS011;5895;41.950;24.372;2022-12-19T04:07:09;2.20;;;2.00;;
11677;SDS011;5895;41.950;24.372;2022-12-19T04:09:39;4.22;;;2.45;;
11677;SDS011;5895;41.950;24.372;2022-12-19T04:12:09;2.42;;;2.00;;
11677;SDS011;5895;41.950;24.372;2022-12-19T04:14:40;4.28;;;2.67;;
11677;SDS011;5895;41.950;24.372;2022-12-19T04:17:10;10.07;;;3.15;;
11677;SDS011;5895;41.950;24.372;2022-12-19T04:19:46;2.58;;;2.38;;
11677;SDS011;5895;41.950;24.372;2022-12-19T04:22:20;4.35;;;3.95;;
11677;SDS011;5895;41.950;24.372;2022-12-19T04:24:51;4.40;;;3.42;;
11677;SDS011;5895;41.950;24.372;2022-12-19T04:27:21;10.82;;;4.68;;
11677;SDS011;5895;41.950;24.372;2022-12-19T04:29:49;7.05;;;4.75;;
11677;SDS011;5895;41.950;24.372;2022-12-19T04:32:20;4.40;;;4.00;;
11677;SDS011;5895;41.950;24.372;2022-12-19T04:34:51;4.60;;;3.90;;
11677;SDS011;5895;41.950;24.372;2022-12-19T04:37:18;3.42;;;3.13;;
11677;SDS011;5895;41.950;24.372;2022-12-19T04:39:46;3.28;;;2.97;;
11677;SDS011;5895;41.950;24.372;2022-12-19T04:42:14;2.90;;;2.60;;
11677;SDS011;5895;41.950;24.372;2022-12-19T04:44:41;3.70;;;3.33;;
11677;SDS011;5895;41.950;24.372;2022-12-19T04:47:09;4.30;;;3.60;;
11677;SDS011;5895;41.950;24.372;2022-12-19T04:49:36;8.45;;;6.72;;
11677;SDS011;5895;41.950;24.372;2022-12-19T04:52:05;4.45;;;3.75;;
11677;SDS011;5895;41.950;24.372;2022-12-19T04:54:33;3.70;;;3.13;;
11677;SDS011;5895;41.950;24.372;2022-12-19T04:57:00;4.50;;;3.55;;
11677;SDS011;5895;41.950;24.372;2022-12-19T04:59:28;4.25;;;3.13;;
11677;SDS011;5895;41.950;24.372;2022-12-19T05:01:56;3.30;;;2.92;;
11677;SDS011;5895;41.950;24.372;2022-12-19T05:04:23;6.40;;;3.65;;
11677;SDS011;5895;41.950;24.372;2022-12-19T05:06:51;5.18;;;3.03;;
11677;SDS011;5895;41.950;24.372;2022-12-19T05:09:20;9.20;;;3.40;;
11677;SDS011;5895;41.950;24.372;2022-12-19T05:11:47;4.03;;;3.45;;
11677;SDS011;5895;41.950;24.372;2022-12-19T05:14:15;3.80;;;3.38;;
11677;SDS011;5895;41.950;24.372;2022-12-19T05:16:42;7.13;;;3.72;;
11677;SDS011;5895;41.950;24.372;2022-12-19T05:19:10;3.03;;;2.75;;
11677;SDS011;5895;41.950;24.372;2022-12-19T05:21:39;10.93;;;4.13;;
11677;SDS011;5895;41.950;24.372;2022-12-19T05:24:07;9.85;;;4.30;;
11677;SDS011;5895;41.950;24.372;2022-12-19T05:26:35;6.18;;;4.13;;
11677;SDS011;5895;41.950;24.372;2022-12-19T05:29:03;18.30;;;3.90;;
11677;SDS011;5895;41.950;24.372;2022-12-19T05:31:32;5.78;;;3.20;;
11677;SDS011;5895;41.950;24.372;2022-12-19T05:34:00;3.30;;;3.00;;
11677;SDS011;5895;41.950;24.372;2022-12-19T05:36:27;5.72;;;4.15;;
11677;SDS011;5895;41.950;24.372;2022-12-19T05:38:55;6.18;;;4.28;;
11677;SDS011;5895;41.950;24.372;2022-12-19T05:41:22;5.05;;;3.97;;
11677;SDS011;5895;41.950;24.372;2022-12-19T05:43:53;28.55;;;4.03;;
11677;SDS011;5895;41.950;24.372;2022-12-19T05:46:22;3.58;;;3.17;;
11677;SDS011;5895;41.950;24.372;2022-12-19T05:48:51;4.20;;;3.80;;
11677;SDS011;5895;41.950;24.372;2022-12-19T05:51:19;10.25;;;6.22;;
11677;SDS011;5895;41.950;24.372;2022-12-19T05:53:47;12.32;;;7.82;;
11677;SDS011;5895;41.950;24.372;2022-12-19T05:56:15;8.15;;;5.70;;
11677;SDS011;5895;41.950;24.372;2022-12-19T05:58:43;3.67;;;3.38;;
11677;SDS011;5895;41.950;24.372;2022-12-19T06:01:13;2.55;;;2.35;;
11677;SDS011;5895;41.950;24.372;2022-12-19T06:03:42;2.25;;;2.05;;
11677;SDS011;5895;41.950;24.372;2022-12-19T06:06:11;2.15;;;2.03;;
11677;SDS011;5895;41.950;24.372;2022-12-19T06:08:40;2.30;;;2.10;;
11677;SDS011;5895;41.950;24.372;2022-12-19T06:11:08;2.40;;;2.20;;
11677;SDS011;5895;41.950;24.372;2022-12-19T06:13:37;3.05;;;2.75;;
11677;SDS011;5895;41.950;24.372;2022-12-19T06:16:06;2.70;;;2.50;;
11677;SDS011;5895;41.950;24.372;2022-12-19T06:18:37;2.80;;;2.60;;
11677;SDS011;5895;41.950;24.372;2022-12-19T06:21:06;3.15;;;2.90;;
11677;SDS011;5895;41.950;24.372;2022-12-19T06:23:37;2.92;;;2.72;;
11677;SDS011;5895;41.950;24.372;2022-12-19T06:26:05;3.10;;;2.80;;
11677;SDS011;5895;41.950;24.372;2022-12-19T06:28:34;2.75;;;2.55;;
11677;SDS011;5895;41.950;24.372;2022-12-19T06:31:02;2.72;;;2.53;;
11677;SDS011;5895;41.950;24.372;2022-12-19T06:33:31;2.80;;;2.60;;
11677;SDS011;5895;41.950;24.372;2022-12-19T06:36:02;3.28;;;3.00;;
11677;SDS011;5895;41.950;24.372;2022-12-19T06:38:32;3.47;;;3.17;;
11677;SDS011;5895;41.950;24.372;2022-12-19T06:41:00;2.83;;;2.63;;
11677;SDS011;5895;41.950;24.372;2022-12-19T06:43:46;4.07;;;2.90;;
11677;SDS011;5895;41.950;24.372;2022-12-19T06:46:14;3.75;;;3.45;;
11677;SDS011;5895;41.950;24.372;2022-12-19T06:48:41;3.13;;;2.83;;
11677;SDS011;5895;41.950;24.372;2022-12-19T06:51:10;3.97;;;3.65;;
11677;SDS011;5895;41.950;24.372;2022-12-19T06:53:38;3.70;;;3.40;;
11677;SDS011;5895;41.950;24.372;2022-12-19T06:56:05;5.03;;;4.53;;
11677;SDS011;5895;41.950;24.372;2022-12-19T06:58:33;22.13;;;15.23;;
11677;SDS011;5895;41.950;24.372;2022-12-19T07:07:57;7.40;;;6.70;;
11677;SDS011;5895;41.950;24.372;2022-12-19T07:10:24;7.25;;;6.55;;
11677;SDS011;5895;41.950;24.372;2022-12-19T07:12:52;7.15;;;5.68;;
11677;SDS011;5895;41.950;24.372;2022-12-19T07:15:19;5.85;;;5.30;;
11677;SDS011;5895;41.950;24.372;2022-12-19T07:17:47;6.40;;;5.80;;
11677;SDS011;5895;41.950;24.372;2022-12-19T07:20:15;10.10;;;5.88;;
11677;SDS011;5895;41.950;24.372;2022-12-19T07:22:43;6.00;;;5.40;;
11677;SDS011;5895;41.950;24.372;2022-12-19T07:25:13;6.18;;;5.55;;
11677;SDS011;5895;41.950;24.372;2022-12-19T07:27:41;7.00;;;6.30;;
11677;SDS011;5895;41.950;24.372;2022-12-19T07:30:10;5.75;;;5.25;;
11677;SDS011;5895;41.950;24.372;2022-12-19T07:32:38;5.22;;;4.72;;
11677;SDS011;5895;41.950;24.372;2022-12-19T07:35:06;6.15;;;5.57;;
11677;SDS011;5895;41.950;24.372;2022-12-19T07:37:34;5.97;;;4.75;;
11677;SDS011;5895;41.950;24.372;2022-12-19T07:40:01;5.78;;;5.28;;
11677;SDS011;5895;41.950;24.372;2022-12-19T07:42:31;5.53;;;5.03;;
11677;SDS011;5895;41.950;24.372;2022-12-19T07:44:58;6.63;;;6.05;;
11677;SDS011;5895;41.950;24.372;2022-12-19T07:47:26;7.22;;;6.47;;
11677;SDS011;5895;41.950;24.372;2022-12-19T07:49:53;6.82;;;6.13;;
11677;SDS011;5895;41.950;24.372;2022-12-19T07:52:21;8.43;;;7.00;;
11677;SDS011;5895;41.950;24.372;2022-12-19T07:54:48;10.15;;;6.93;;
11677;SDS011;5895;41.950;24.372;2022-12-19T07:57:16;19.33;;;6.38;;
11677;SDS011;5895;41.950;24.372;2022-12-19T07:59:45;9.77;;;7.70;;
11677;SDS011;5895;41.950;24.372;2022-12-19T08:02:12;19.55;;;6.80;;
11677;SDS011;5895;41.950;24.372;2022-12-19T08:04:40;7.35;;;6.65;;
11677;SDS011;5895;41.950;24.372;2022-12-19T08:07:07;18.58;;;6.50;;
11677;SDS011;5895;41.950;24.372;2022-12-19T08:09:35;8.23;;;6.75;;
11677;SDS011;5895;41.950;24.372;2022-12-19T08:12:02;9.25;;;6.18;;
11677;SDS011;5895;41.950;24.372;2022-12-19T08:14:33;9.02;;;7.85;;
11677;SDS011;5895;41.950;24.372;2022-12-19T08:17:02;8.55;;;7.00;;
11677;SDS011;5895;41.950;24.372;2022-12-19T08:19:30;12.25;;;7.40;;
11677;SDS011;5895;41.950;24.372;2022-12-19T08:21:57;12.98;;;7.38;;
11677;SDS011;5895;41.950;24.372;2022-12-19T08:24:25;9.23;;;6.95;;
11677;SDS011;5895;41.950;24.372;2022-12-19T08:26:52;10.05;;;6.82;;
11677;SDS011;5895;41.950;24.372;2022-12-19T08:29:19;21.92;;;9.50;;
11677;SDS011;5895;41.950;24.372;2022-12-19T08:31:47;21.13;;;9.30;;
11677;SDS011;5895;41.950;24.372;2022-12-19T08:34:16;13.93;;;9.57;;
11677;SDS011;5895;41.950;24.372;2022-12-19T08:36:44;18.80;;;11.57;;
11677;SDS011;5895;41.950;24.372;2022-12-19T08:39:11;17.35;;;9.55;;
11677;SDS011;5895;41.950;24.372;2022-12-19T08:41:38;10.13;;;7.90;;
11677;SDS011;5895;41.950;24.372;2022-12-19T08:44:09;9.77;;;7.15;;
11677;SDS011;5895;41.950;24.372;2022-12-19T08:46:37;8.93;;;7.93;;
11677;SDS011;5895;41.950;24.372;2022-12-19T08:49:04;12.25;;;8.90;;
11677;SDS011;5895;41.950;24.372;2022-12-19T08:51:33;32.88;;;7.75;;
11677;SDS011;5895;41.950;24.372;2022-12-19T08:54:01;21.42;;;9.35;;
11677;SDS011;5895;41.950;24.372;2022-12-19T08:56:28;10.27;;;7.97;;
11677;SDS011;5895;41.950;24.372;2022-12-19T08:58:56;8.48;;;6.97;;
11677;SDS011;5895;41.950;24.372;2022-12-19T09:01:23;73.90;;;9.50;;
11677;SDS011;5895;41.950;24.372;2022-12-19T09:03:51;29.25;;;8.63;;
11677;SDS011;5895;41.950;24.372;2022-12-19T09:06:18;9.23;;;6.88;;
11677;SDS011;5895;41.950;24.372;2022-12-19T09:08:47;10.75;;;7.47;;
11677;SDS011;5895;41.950;24.372;2022-12-19T09:11:16;13.20;;;6.13;;
11677;SDS011;5895;41.950;24.372;2022-12-19T09:13:45;8.20;;;7.07;;
11677;SDS011;5895;41.950;24.372;2022-12-19T09:16:15;11.00;;;7.15;;
11677;SDS011;5895;41.950;24.372;2022-12-19T09:18:44;10.95;;;6.85;;
11677;SDS011;5895;41.950;24.372;2022-12-19T09:21:12;9.70;;;7.30;;
11677;SDS011;5895;41.950;24.372;2022-12-19T09:23:41;17.48;;;6.97;;
11677;SDS011;5895;41.950;24.372;2022-12-19T09:26:15;13.98;;;7.75;;
11677;SDS011;5895;41.950;24.372;2022-12-19T09:28:44;23.88;;;7.25;;
11677;SDS011;5895;41.950;24.372;2022-12-19T09:31:13;28.52;;;7.35;;
11677;SDS011;5895;41.950;24.372;2022-12-19T09:33:42;91.30;;;7.80;;
11677;SDS011;5895;41.950;24.372;2022-12-19T09:36:11;51.83;;;6.88;;
11677;SDS011;5895;41.950;24.372;2022-12-19T09:38:40;99.38;;;9.55;;
11677;SDS011;5895;41.950;24.372;2022-12-19T09:44:14;18.35;;;7.88;;
11677;SDS011;5895;41.950;24.372;2022-12-19T09:46:56;143.88;;;10.85;;
11677;SDS011;5895;41.950;24.372;2022-12-19T09:49:27;247.27;;;12.93;;
11677;SDS011;5895;41.950;24.372;2022-12-19T09:52:00;87.63;;;9.95;;
11677;SDS011;5895;41.950;24.372;2022-12-19T09:54:34;127.65;;;11.70;;
11677;SDS011;5895;41.950;24.372;2022-12-19T09:57:10;184.60;;;11.15;;
11677;SDS011;5895;41.950;24.372;2022-12-19T09:59:43;31.33;;;7.95;;
11677;SDS011;5895;41.950;24.372;2022-12-19T10:02:25;299.77;;;11.27;;
11677;SDS011;5895;41.950;24.372;2022-12-19T10:05:02;199.45;;;11.45;;
11677;SDS011;5895;41.950;24.372;2022-12-19T10:07:38;276.77;;;12.50;;
11677;SDS011;5895;41.950;24.372;2022-12-19T10:10:06;31.38;;;10.27;;
11677;SDS011;5895;41.950;24.372;2022-12-19T10:12:53;38.10;;;8.45;;
11677;SDS011;5895;41.950;24.372;2022-12-19T10:15:34;132.63;;;12.10;;
11677;SDS011;5895;41.950;24.372;2022-12-19T10:18:23;122.30;;;11.18;;
11677;SDS011;5895;41.950;24.372;2022-12-19T10:21:01;315.02;;;13.60;;
11677;SDS011;5895;41.950;24.372;2022-12-19T10:23:46;188.57;;;12.13;;
11677;SDS011;5895;41.950;24.372;2022-12-19T10:26:27;118.32;;;12.32;;
11677;SDS011;5895;41.950;24.372;2022-12-19T10:29:05;61.45;;;11.75;;
11677;SDS011;5895;41.950;24.372;2022-12-19T10:31:44;49.65;;;11.52;;
11677;SDS011;5895;41.950;24.372;2022-12-19T10:34:20;19.55;;;13.68;;
11677;SDS011;5895;41.950;24.372;2022-12-19T10:36:49;60.85;;;13.38;;
11677;SDS011;5895;41.950;24.372;2022-12-19T10:39:23;15.95;;;9.18;;
11677;SDS011;5895;41.950;24.372;2022-12-19T10:41:56;12.13;;;8.98;;
11677;SDS011;5895;41.950;24.372;2022-12-19T10:44:31;9.68;;;8.68;;
11677;SDS011;5895;41.950;24.372;2022-12-19T10:47:04;15.80;;;11.57;;
11677;SDS011;5895;41.950;24.372;2022-12-19T10:49:39;16.10;;;10.82;;
11677;SDS011;5895;41.950;24.372;2022-12-19T10:52:08;18.55;;;11.00;;
11677;SDS011;5895;41.950;24.372;2022-12-19T10:54:37;27.83;;;13.32;;
11677;SDS011;5895;41.950;24.372;2022-12-19T10:57:20;23.90;;;11.50;;
11677;SDS011;5895;41.950;24.372;2022-12-19T10:59:55;19.02;;;13.52;;
11677;SDS011;5895;41.950;24.372;2022-12-19T11:02:29;13.27;;;10.85;;
11677;SDS011;5895;41.950;24.372;2022-12-19T11:05:01;13.25;;;11.85;;
11677;SDS011;5895;41.950;24.372;2022-12-19T11:07:31;12.63;;;11.32;;
11677;SDS011;5895;41.950;24.372;2022-12-19T11:09:58;12.05;;;10.40;;
11677;SDS011;5895;41.950;24.372;2022-12-19T11:12:26;13.23;;;10.82;;
11677;SDS011;5895;41.950;24.372;2022-12-19T11:15:06;12.15;;;10.85;;
11677;SDS011;5895;41.950;24.372;2022-12-19T11:17:40;15.25;;;11.32;;
11677;SDS011;5895;41.950;24.372;2022-12-19T11:20:11;11.18;;;9.98;;
11677;SDS011;5895;41.950;24.372;2022-12-19T11:22:40;15.82;;;12.52;;
11677;SDS011;5895;41.950;24.372;2022-12-19T11:25:19;15.60;;;13.23;;
11677;SDS011;5895;41.950;24.372;2022-12-19T11:27:48;17.92;;;13.93;;
11677;SDS011;5895;41.950;24.372;2022-12-19T11:30:19;59.10;;;17.25;;
11677;SDS011;5895;41.950;24.372;2022-12-19T11:32:49;15.77;;;13.45;;
11677;SDS011;5895;41.950;24.372;2022-12-19T11:35:33;16.23;;;13.48;;
11677;SDS011;5895;41.950;24.372;2022-12-19T11:38:13;132.48;;;17.52;;
11677;SDS011;5895;41.950;24.372;2022-12-19T11:40:46;48.45;;;13.35;;
11677;SDS011;5895;41.950;24.372;2022-12-19T11:43:18;23.90;;;14.15;;
11677;SDS011;5895;41.950;24.372;2022-12-19T11:45:53;13.57;;;11.85;;
11677;SDS011;5895;41.950;24.372;2022-12-19T11:48:29;13.63;;;10.60;;
11677;SDS011;5895;41.950;24.372;2022-12-19T11:51:05;13.15;;;11.48;;
11677;SDS011;5895;41.950;24.372;2022-12-19T11:53:42;10.55;;;9.45;;
11677;SDS011;5895;41.950;24.372;2022-12-19T11:56:17;11.75;;;10.55;;
11677;SDS011;5895;41.950;24.372;2022-12-19T11:58:47;12.68;;;11.38;;
11677;SDS011;5895;41.950;24.372;2022-12-19T12:01:19;13.93;;;11.40;;
11677;SDS011;5895;41.950;24.372;2022-12-19T12:04:11;14.35;;;12.25;;
11677;SDS011;5895;41.950;24.372;2022-12-19T12:06:59;11.48;;;10.23;;
11677;SDS011;5895;41.950;24.372;2022-12-19T12:09:29;15.38;;;12.43;;
11677;SDS011;5895;41.950;24.372;2022-12-19T12:12:03;13.85;;;12.23;;
11677;SDS011;5895;41.950;24.372;2022-12-19T12:14:38;15.07;;;13.38;;
11677;SDS011;5895;41.950;24.372;2022-12-19T12:17:20;12.95;;;11.63;;
11677;SDS011;5895;41.950;24.372;2022-12-19T12:20:00;11.07;;;9.88;;
11677;SDS011;5895;41.950;24.372;2022-12-19T12:22:44;11.77;;;10.57;;
11677;SDS011;5895;41.950;24.372;2022-12-19T12:25:25;9.90;;;8.90;;
11677;SDS011;5895;41.950;24.372;2022-12-19T12:28:14;9.95;;;9.00;;
11677;SDS011;5895;41.950;24.372;2022-12-19T12:31:14;9.45;;;8.48;;
11677;SDS011;5895;41.950;24.372;2022-12-19T12:34:02;10.75;;;9.15;;
11677;SDS011;5895;41.950;24.372;2022-12-19T12:36:42;10.88;;;9.30;;
11677;SDS011;5895;41.950;24.372;2022-12-19T12:39:19;11.10;;;9.77;;
11677;SDS011;5895;41.950;24.372;2022-12-19T12:41:52;10.25;;;8.57;;
11677;SDS011;5895;41.950;24.372;2022-12-19T12:44:30;11.50;;;9.90;;
11677;SDS011;5895;41.950;24.372;2022-12-19T12:47:01;12.30;;;9.93;;
11677;SDS011;5895;41.950;24.372;2022-12-19T12:49:38;13.27;;;10.95;;
11677;SDS011;5895;41.950;24.372;2022-12-19T12:52:09;14.15;;;11.95;;
11677;SDS011;5895;41.950;24.372;2022-12-19T12:54:41;16.23;;;13.15;;
11677;SDS011;5895;41.950;24.372;2022-12-19T12:57:18;16.85;;;12.55;;
11677;SDS011;5895;41.950;24.372;2022-12-19T13:00:12;20.40;;;14.80;;
11677;SDS011;5895;41.950;24.372;2022-12-19T13:02:42;19.75;;;14.70;;
11677;SDS011;5895;41.950;24.372;2022-12-19T13:05:24;28.95;;;16.65;;
11677;SDS011;5895;41.950;24.372;2022-12-19T13:08:00;65.68;;;19.27;;
11677;SDS011;5895;41.950;24.372;2022-12-19T13:10:52;44.90;;;16.90;;
11677;SDS011;5895;41.950;24.372;2022-12-19T13:13:20;24.60;;;14.43;;
11677;SDS011;5895;41.950;24.372;2022-12-19T13:19:15;101.38;;;23.23;;
11677;SDS011;5895;41.950;24.372;2022-12-19T13:24:46;33.70;;;17.75;;
11677;SDS011;5895;41.950;24.372;2022-12-19T13:27:32;21.20;;;16.50;;
11677;SDS011;5895;41.950;24.372;2022-12-19T13:30:14;23.45;;;17.75;;
11677;SDS011;5895;41.950;24.372;2022-12-19T13:35:34;27.20;;;17.20;;
11677;SDS011;5895;41.950;24.372;2022-12-19T13:38:02;25.45;;;17.45;;
11677;SDS011;5895;41.950;24.372;2022-12-19T13:40:52;24.02;;;20.70;;
11677;SDS011;5895;41.950;24.372;2022-12-19T13:43:23;21.35;;;17.58;;
11677;SDS011;5895;41.950;24.372;2022-12-19T13:46:21;15.02;;;12.77;;
11677;SDS011;5895;41.950;24.372;2022-12-19T13:49:05;21.17;;;16.60;;
11677;SDS011;5895;41.950;24.372;2022-12-19T13:51:41;24.67;;;18.27;;
11677;SDS011;5895;41.950;24.372;2022-12-19T13:54:19;44.67;;;20.85;;
11677;SDS011;5895;41.950;24.372;2022-12-19T13:56:50;90.80;;;25.40;;
11677;SDS011;5895;41.950;24.372;2022-12-19T13:59:18;152.15;;;24.23;;
11677;SDS011;5895;41.950;24.372;2022-12-19T14:01:49;22.80;;;17.52;;
11677;SDS011;5895;41.950;24.372;2022-12-19T14:04:24;19.80;;;16.60;;
11677;SDS011;5895;41.950;24.372;2022-12-19T14:06:55;28.63;;;23.38;;
11677;SDS011;5895;41.950;24.372;2022-12-19T14:09:27;24.85;;;19.85;;
11677;SDS011;5895;41.950;24.372;2022-12-19T14:12:01;28.05;;;21.50;;
11677;SDS011;5895;41.950;24.372;2022-12-19T14:14:30;44.03;;;23.70;;
11677;SDS011;5895;41.950;24.372;2022-12-19T14:17:15;22.27;;;18.38;;
11677;SDS011;5895;41.950;24.372;2022-12-19T14:19:45;20.10;;;15.80;;
11677;SDS011;5895;41.950;24.372;2022-12-19T14:22:19;21.95;;;16.92;;
11677;SDS011;5895;41.950;24.372;2022-12-19T14:24:54;18.27;;;15.60;;
11677;SDS011;5895;41.950;24.372;2022-12-19T14:27:26;16.35;;;13.85;;
11677;SDS011;5895;41.950;24.372;2022-12-19T14:30:00;14.85;;;12.98;;
11677;SDS011;5895;41.950;24.372;2022-12-19T14:32:29;14.15;;;12.20;;
11677;SDS011;5895;41.950;24.372;2022-12-19T14:34:59;18.90;;;15.73;;
11677;SDS011;5895;41.950;24.372;2022-12-19T14:37:32;17.23;;;14.85;;
11677;SDS011;5895;41.950;24.372;2022-12-19T14:40:05;14.23;;;12.35;;
11677;SDS011;5895;41.950;24.372;2022-12-19T14:42:41;17.63;;;15.00;;
11677;SDS011;5895;41.950;24.372;2022-12-19T14:45:30;14.45;;;12.95;;
11677;SDS011;5895;41.950;24.372;2022-12-19T14:48:00;15.50;;;13.68;;
11677;SDS011;5895;41.950;24.372;2022-12-19T14:50:29;18.30;;;15.07;;
11677;SDS011;5895;41.950;24.372;2022-12-19T14:53:07;19.90;;;15.77;;
11677;SDS011;5895;41.950;24.372;2022-12-19T14:55:40;18.27;;;15.13;;
11677;SDS011;5895;41.950;24.372;2022-12-19T14:58:15;14.85;;;12.48;;
11677;SDS011;5895;41.950;24.372;2022-12-19T15:00:45;15.85;;;13.60;;
11677;SDS011;5895;41.950;24.372;2022-12-19T15:03:15;16.00;;;13.48;;
11677;SDS011;5895;41.950;24.372;2022-12-19T15:05:47;18.20;;;13.23;;
11677;SDS011;5895;41.950;24.372;2022-12-19T15:08:19;19.33;;;15.18;;
11677;SDS011;5895;41.950;24.372;2022-12-19T15:10:56;17.45;;;14.60;;
11677;SDS011;5895;41.950;24.372;2022-12-19T15:13:51;16.58;;;13.50;;
11677;SDS011;5895;41.950;24.372;2022-12-19T15:16:23;20.98;;;16.33;;
11677;SDS011;5895;41.950;24.372;2022-12-19T15:18:54;15.98;;;13.10;;
11677;SDS011;5895;41.950;24.372;2022-12-19T15:21:23;17.02;;;12.52;;
11677;SDS011;5895;41.950;24.372;2022-12-19T15:23:51;21.98;;;17.33;;
11677;SDS011;5895;41.950;24.372;2022-12-19T15:26:24;18.50;;;14.65;;
11677;SDS011;5895;41.950;24.372;2022-12-19T15:28:55;12.10;;;10.60;;